Flight Track Log - Related Links

Times and Time Zones

All times are in EDT time to prevent confusion due to time zone crossing. See the EJA922 flight status page for this flight to view local times or setup timezone preferences in your user account.


Time Position Orientation Groundspeed Altitude Reporting Facility
EDT Latitude Longitude Course Direction KTS MPH feet Rate Location/Type
Fri 08:18:56 PM 43.1239 -77.6761 42° Northeast 167 192 1,400  Level Cleveland Center
Fri 08:19:56 PM 43.1625 -77.6289 42° Northeast 249 287 5,900 5,938 Climbing Cleveland Center
Fri 08:20:33 PM 43.1444 -77.5756 115° Southeast 267 307 11,000 3,711 Climbing Cleveland Center
Fri 08:21:33 PM 43.0939 -77.4842 127° Southeast 290 334 11,900 2,250 Climbing Cleveland Center
Fri 08:22:33 PM 43.0681 -77.3775 108° East 300 345 15,500 2,491 Climbing Cleveland Center
Fri 08:24:24 PM 43.0517 -77.1378 95° East 326 375 19,000 1,221 Climbing Boston Center
Fri 08:25:25 PM 43.0378 -76.9661 96° East 393 452 19,000  Level Boston Center
Fri 08:26:26 PM 43.0242 -76.7861 96° East 444 511 19,000  Level Boston Center
Fri 08:27:23 PM 43.0119 -76.6092 95° East 465 535 19,000  Level Boston Center
Fri 08:28:23 PM 42.9994 -76.4350 96° East 470 541 19,000  Level Boston Center
Fri 08:29:24 PM 42.9825 -76.2606 98° East 465 535 19,000  Level Boston Center
Fri 08:30:25 PM 42.9675 -76.0836 97° East 465 535 19,000  Level Boston Center
Fri 08:31:25 PM 42.9519 -75.9069 97° East 471 542 19,000  Level Boston Center
Fri 08:32:26 PM 42.9383 -75.7331 96° East 464 534 19,000  Level Boston Center
Fri 08:33:23 PM 42.9225 -75.5619 97° East 464 534 19,000  Level Boston Center
Fri 08:34:24 PM 42.9061 -75.3883 97° East 464 534 19,000  Level Boston Center
Fri 08:35:24 PM 42.8875 -75.2200 99° East 464 534 19,000 -50 Level Boston Center
Fri 08:36:25 PM 42.8747 -75.0494 96° East 459 528 18,900 -866 Descending Boston Center
Fri 08:37:01 PM 42.8625 -74.9469 99° East 457 526 17,600 -2,250 Descending Boston Center
Fri 08:38:01 PM 42.8472 -74.7850 97° East 427 491 15,300 -2,182 Descending Boston Center
Fri 08:39:02 PM 42.8336 -74.6344 97° East 392 451 13,200 -2,083 Descending Boston Center
Fri 08:40:02 PM 42.8175 -74.4867 98° East 394 453 11,100 -1,537 Descending Boston Center
Fri 08:41:03 PM 42.7844 -74.3611 110° East 333 383 10,100 -1,131 Descending Boston Center
Fri 08:42:04 PM 42.7400 -74.2606 121° Southeast 272 313 8,800 -1,574 Descending Boston Center
Fri 08:43:05 PM 42.7061 -74.1664 116° Southeast 275 316 6,900 -1,785 Descending Boston Center
Fri 08:44:05 PM 42.6681 -74.0750 120° Southeast 280 322 5,200 -1,438 Descending Boston Center
Fri 08:45:06 PM 42.6297 -73.9836 120° Southeast 265 305 4,000 -843 Descending Boston Center
Fri 08:46:06 PM 42.5975 -73.8983 117° Southeast 261 300 3,500 -496 Descending Boston Center
Fri 08:47:07 PM 42.6047 -73.8167 83° East 219 252 3,000 -466 Descending Boston Center
Fri 08:48:02 PM 42.6464 -73.8033 13° North 171 197 2,600 -835 Descending Boston Center
Fri 08:49:02 PM 42.6861 -73.8042 359° North 112 129 1,400 -942 Descending Boston Center
Fri 08:50:03 PM 42.7194 -73.8078 355° North 108 124 700 -689 Descending Boston Center

Login

Don't have an account? Register now (free) for customized features, flight alerts, and more!